createdAt,value
2023-03-26T00:01:15.238Z,11.90
2023-03-26T00:03:44.758Z,11.00
2023-03-26T00:06:13.765Z,9.94
2023-03-26T00:08:42.635Z,10.25
2023-03-26T00:11:10.982Z,9.76
2023-03-26T00:13:37.995Z,9.76
2023-03-26T00:16:05.233Z,9.70
2023-03-26T00:18:32.020Z,9.89
2023-03-26T00:20:59.511Z,10.25
2023-03-26T00:23:28.204Z,10.07
2023-03-26T00:25:56.131Z,9.56
2023-03-26T00:28:24.132Z,9.35
2023-03-26T00:30:57.480Z,9.65
2023-03-26T00:33:24.200Z,10.54
2023-03-26T00:35:55.538Z,11.03
2023-03-26T00:38:23.965Z,10.87
2023-03-26T00:40:51.863Z,11.37
2023-03-26T00:43:19.463Z,11.85
2023-03-26T00:45:51.000Z,12.35
2023-03-26T00:48:18.352Z,12.68
2023-03-26T00:50:46.673Z,12.94
2023-03-26T00:53:15.027Z,13.09
2023-03-26T00:55:42.811Z,11.77
2023-03-26T00:58:12.132Z,10.86
2023-03-26T01:00:46.390Z,9.81
2023-03-26T01:03:24.858Z,8.83
2023-03-26T01:06:02.563Z,7.58
2023-03-26T01:08:40.503Z,8.31
2023-03-26T01:11:29.597Z,7.32
2023-03-26T01:14:09.923Z,7.38
2023-03-26T01:16:54.964Z,6.39
2023-03-26T01:19:31.101Z,5.30
2023-03-26T01:21:58.853Z,4.43
2023-03-26T01:24:25.275Z,4.15
2023-03-26T01:27:33.596Z,4.29
2023-03-26T01:30:12.129Z,4.05
2023-03-26T01:32:47.713Z,5.10
2023-03-26T01:35:20.043Z,0.64
2023-03-26T01:38:23.255Z,0.00
2023-03-26T01:41:12.091Z,0.00
2023-03-26T01:43:44.590Z,0.00
2023-03-26T01:46:13.176Z,0.00
2023-03-26T01:48:43.449Z,0.00
2023-03-26T01:51:12.080Z,0.00
2023-03-26T01:53:44.849Z,0.00
2023-03-26T01:56:31.371Z,0.00
2023-03-26T01:59:25.923Z,0.00
2023-03-26T02:02:21.876Z,0.00
2023-03-26T02:05:01.665Z,0.00
2023-03-26T02:07:44.961Z,0.00
2023-03-26T02:10:23.973Z,0.00
2023-03-26T02:12:51.012Z,0.00
2023-03-26T02:15:17.591Z,0.00
2023-03-26T02:17:44.311Z,0.00
2023-03-26T02:20:14.157Z,0.00
2023-03-26T02:22:45.921Z,0.00
2023-03-26T02:25:17.186Z,0.00
2023-03-26T02:27:45.737Z,0.00
2023-03-26T02:30:16.722Z,0.00
2023-03-26T02:32:45.939Z,0.00
2023-03-26T02:35:13.181Z,0.00
2023-03-26T02:37:40.377Z,0.00
2023-03-26T02:40:15.838Z,0.00
2023-03-26T02:42:44.045Z,0.00
2023-03-26T02:45:10.625Z,0.00
2023-03-26T02:48:02.898Z,0.00
2023-03-26T02:50:39.286Z,0.00
2023-03-26T02:53:37.506Z,0.00
2023-03-26T02:56:23.465Z,0.00
2023-03-26T02:59:12.173Z,0.00
2023-03-26T03:01:42.886Z,0.00
2023-03-26T03:04:11.479Z,0.00
2023-03-26T03:06:40.320Z,0.00
2023-03-26T03:09:10.218Z,0.00
2023-03-26T03:11:41.839Z,0.00
2023-03-26T03:14:08.390Z,0.00
2023-03-26T03:16:35.366Z,0.00
2023-03-26T03:19:06.045Z,0.00
2023-03-26T03:21:40.147Z,0.00
2023-03-26T03:24:08.798Z,0.00
2023-03-26T03:26:42.377Z,0.00
2023-03-26T03:29:29.154Z,0.00
2023-03-26T03:32:00.023Z,0.00
2023-03-26T03:34:38.575Z,0.00
2023-03-26T03:37:05.858Z,0.00
2023-03-26T03:39:40.953Z,0.00
2023-03-26T03:42:08.157Z,0.00
2023-03-26T03:44:35.481Z,0.00
2023-03-26T03:47:06.975Z,0.00
2023-03-26T03:49:33.887Z,0.00
2023-03-26T03:52:01.300Z,0.00
2023-03-26T03:54:34.022Z,0.00
2023-03-26T03:57:11.553Z,0.00
2023-03-26T03:59:47.935Z,0.00
2023-03-26T04:02:26.611Z,0.00
2023-03-26T04:04:57.670Z,0.00
2023-03-26T04:07:25.661Z,0.00
2023-03-26T04:10:15.282Z,0.00
2023-03-26T04:13:20.038Z,0.00
2023-03-26T04:16:19.047Z,0.00
2023-03-26T04:18:48.796Z,0.00
2023-03-26T04:21:15.914Z,0.00
2023-03-26T04:23:43.291Z,0.00
2023-03-26T04:26:22.781Z,0.00
2023-03-26T04:29:11.831Z,0.00
2023-03-26T04:31:38.832Z,0.00
2023-03-26T04:34:13.394Z,0.00
2023-03-26T04:36:49.753Z,0.00
2023-03-26T04:39:17.917Z,0.00
2023-03-26T04:42:14.242Z,0.00
2023-03-26T04:44:54.715Z,0.00
2023-03-26T04:47:21.509Z,0.00
2023-03-26T04:49:48.289Z,0.00
2023-03-26T04:52:16.209Z,0.00
2023-03-26T04:55:20.937Z,0.00
2023-03-26T04:57:55.914Z,0.00
2023-03-26T05:00:43.192Z,0.00
2023-03-26T05:03:11.659Z,0.00
2023-03-26T05:05:38.616Z,0.00
2023-03-26T05:08:05.790Z,0.00
2023-03-26T05:10:32.304Z,0.00
2023-03-26T05:13:03.477Z,0.00
2023-03-26T05:15:34.122Z,0.00
2023-03-26T05:18:23.144Z,0.00
2023-03-26T05:20:52.175Z,0.00
2023-03-26T05:23:18.656Z,0.00
2023-03-26T05:25:51.871Z,0.00
2023-03-26T05:28:23.273Z,0.00
2023-03-26T05:31:05.390Z,0.76
2023-03-26T05:33:36.598Z,2.88
2023-03-26T05:36:15.149Z,2.92
2023-03-26T05:38:49.300Z,1.41
2023-03-26T05:41:35.818Z,0.00
2023-03-26T05:44:02.322Z,0.00
2023-03-26T05:46:30.464Z,0.00
2023-03-26T05:48:56.904Z,0.00
2023-03-26T05:51:24.000Z,0.00
2023-03-26T05:54:00.557Z,0.00
2023-03-26T05:56:45.633Z,5.03
2023-03-26T05:59:12.021Z,3.79
2023-03-26T06:02:01.123Z,2.65
2023-03-26T06:04:59.750Z,2.52
2023-03-26T06:07:49.401Z,1.13
2023-03-26T06:10:18.979Z,0.00
2023-03-26T06:12:46.106Z,1.62
2023-03-26T06:15:12.735Z,1.80
2023-03-26T06:17:57.341Z,0.00
2023-03-26T06:20:42.378Z,0.00
2023-03-26T06:23:19.601Z,0.00
2023-03-26T06:26:01.225Z,0.00
2023-03-26T06:28:39.598Z,0.00
2023-03-26T06:31:25.667Z,0.00
2023-03-26T06:34:00.274Z,0.00
2023-03-26T06:36:26.902Z,0.00
2023-03-26T06:38:53.601Z,0.00
2023-03-26T06:41:20.100Z,0.00
2023-03-26T06:43:58.067Z,0.00
2023-03-26T06:46:43.275Z,0.00
2023-03-26T06:49:28.319Z,0.00
2023-03-26T06:52:14.463Z,0.00
2023-03-26T06:55:14.181Z,0.00
2023-03-26T06:57:55.890Z,0.00
2023-03-26T07:00:55.165Z,0.00
2023-03-26T07:03:40.406Z,0.00
2023-03-26T07:06:27.200Z,0.00
2023-03-26T07:08:59.522Z,0.00
2023-03-26T07:11:44.742Z,0.00
2023-03-26T07:14:32.643Z,0.00
2023-03-26T07:17:10.060Z,0.00
2023-03-26T07:19:55.274Z,0.00
2023-03-26T07:22:25.960Z,0.00
2023-03-26T07:25:05.932Z,0.00
2023-03-26T07:27:59.662Z,0.00
2023-03-26T07:30:53.059Z,0.00
2023-03-26T07:33:49.038Z,0.00
2023-03-26T07:36:32.834Z,0.00
2023-03-26T07:39:33.990Z,0.00
2023-03-26T07:42:28.163Z,0.00
2023-03-26T07:45:16.012Z,0.00
2023-03-26T07:48:02.087Z,0.00
2023-03-26T07:50:55.749Z,0.00
2023-03-26T07:53:41.438Z,0.00
2023-03-26T07:56:33.765Z,0.00
2023-03-26T07:59:15.021Z,0.00
2023-03-26T08:02:35.285Z,0.00
2023-03-26T08:05:27.664Z,4.71
2023-03-26T08:08:32.290Z,7.07
2023-03-26T08:12:06.154Z,10.07
2023-03-26T08:14:51.308Z,15.40
2023-03-26T08:17:31.027Z,17.19
2023-03-26T08:20:11.788Z,19.47
2023-03-26T08:22:41.724Z,18.26
2023-03-26T08:25:22.607Z,19.32
2023-03-26T08:28:08.387Z,18.69
2023-03-26T08:30:35.708Z,21.12
2023-03-26T08:33:14.438Z,27.35
2023-03-26T08:35:42.366Z,31.52
2023-03-26T08:38:10.608Z,32.57
2023-03-26T08:41:01.102Z,33.00
2023-03-26T08:44:02.389Z,30.97
2023-03-26T08:46:34.709Z,27.53
2023-03-26T08:49:31.826Z,24.08
2023-03-26T08:52:19.456Z,22.30
2023-03-26T08:55:08.125Z,21.51
2023-03-26T08:57:48.444Z,19.26
2023-03-26T09:00:44.285Z,17.40
2023-03-26T09:03:17.499Z,13.61
2023-03-26T09:06:17.664Z,12.50
2023-03-26T09:08:59.049Z,12.23
2023-03-26T09:11:50.067Z,11.12
2023-03-26T09:14:46.367Z,5.56
2023-03-26T09:17:28.651Z,5.09
2023-03-26T09:20:15.198Z,6.58
2023-03-26T09:23:03.057Z,3.76
2023-03-26T09:26:01.896Z,2.18
2023-03-26T09:28:43.341Z,0.00
2023-03-26T09:31:16.036Z,0.00
2023-03-26T09:34:01.450Z,0.00
2023-03-26T09:36:33.820Z,0.00
2023-03-26T09:39:09.790Z,0.00
2023-03-26T09:41:41.644Z,0.00
2023-03-26T09:44:13.995Z,1.96
2023-03-26T09:46:46.654Z,9.92
2023-03-26T09:49:27.360Z,7.33
2023-03-26T09:52:28.892Z,14.34
2023-03-26T09:55:30.524Z,21.06
2023-03-26T09:58:03.316Z,22.31
2023-03-26T10:00:41.830Z,20.18
2023-03-26T10:03:14.889Z,17.37
2023-03-26T10:06:07.098Z,12.89
2023-03-26T10:09:01.550Z,18.82
2023-03-26T10:11:33.217Z,21.39
2023-03-26T10:14:05.958Z,22.03
2023-03-26T10:16:59.836Z,22.23
2023-03-26T10:19:57.087Z,18.65
2023-03-26T10:22:49.500Z,18.99
2023-03-26T10:25:47.114Z,16.64
2023-03-26T10:28:35.344Z,13.40
2023-03-26T10:31:35.197Z,13.28
2023-03-26T10:34:28.708Z,16.15
2023-03-26T10:37:01.625Z,17.61
2023-03-26T10:40:05.877Z,20.85
2023-03-26T10:42:48.158Z,23.08
2023-03-26T10:45:42.794Z,24.10
2023-03-26T10:48:33.621Z,25.03
2023-03-26T10:51:34.008Z,23.40
2023-03-26T10:54:30.807Z,21.67
2023-03-26T10:56:58.045Z,19.71
2023-03-26T10:59:27.380Z,16.71
2023-03-26T11:02:15.536Z,16.63
2023-03-26T11:04:52.699Z,11.64
2023-03-26T11:07:57.266Z,15.74
2023-03-26T11:10:53.735Z,12.46
2023-03-26T11:13:45.158Z,9.29
2023-03-26T11:16:34.258Z,20.69
2023-03-26T11:19:11.845Z,21.62
2023-03-26T11:21:41.116Z,23.35
2023-03-26T11:24:26.181Z,27.57
2023-03-26T11:27:16.014Z,27.50
2023-03-26T11:29:46.299Z,28.29
2023-03-26T11:32:17.489Z,30.90
2023-03-26T11:35:11.037Z,38.66
2023-03-26T11:37:43.434Z,38.12
2023-03-26T11:40:34.887Z,37.99
2023-03-26T11:43:08.761Z,48.71
2023-03-26T11:45:39.204Z,53.45
2023-03-26T11:48:15.622Z,54.26
2023-03-26T11:50:47.970Z,53.15
2023-03-26T11:53:20.140Z,51.97
2023-03-26T11:55:54.853Z,50.29
2023-03-26T11:58:27.980Z,52.84
2023-03-26T12:00:54.872Z,54.68
2023-03-26T12:03:21.870Z,55.24
2023-03-26T12:05:51.893Z,57.07
2023-03-26T12:08:21.650Z,55.90
2023-03-26T12:11:06.319Z,56.23
2023-03-26T12:13:41.833Z,54.53
2023-03-26T12:16:15.265Z,60.42
2023-03-26T12:18:44.305Z,63.50
2023-03-26T12:21:19.509Z,68.26
2023-03-26T12:23:56.765Z,67.46
2023-03-26T12:26:35.109Z,68.87
2023-03-26T12:29:07.982Z,76.77
2023-03-26T12:32:05.970Z,80.71
2023-03-26T12:34:39.273Z,80.43
2023-03-26T12:37:08.360Z,83.62
2023-03-26T12:40:06.537Z,83.17
2023-03-26T12:44:51.384Z,84.97
2023-03-26T12:45:40.693Z,87.75
2023-03-26T12:48:09.935Z,89.45
2023-03-26T12:51:14.138Z,91.27
2023-03-26T12:54:03.761Z,91.34
2023-03-26T12:56:49.791Z,91.25
2023-03-26T13:00:12.432Z,91.14
2023-03-26T13:03:22.363Z,91.34
2023-03-26T13:06:01.826Z,90.55
2023-03-26T13:08:40.583Z,90.28
2023-03-26T13:11:39.872Z,90.00
2023-03-26T13:14:45.173Z,88.41
2023-03-26T13:17:18.359Z,87.65
2023-03-26T13:19:53.978Z,87.87
2023-03-26T13:22:38.492Z,88.45
2023-03-26T13:25:16.922Z,88.64
2023-03-26T13:28:13.565Z,87.51
2023-03-26T13:31:06.441Z,86.93
2023-03-26T13:33:48.650Z,85.44
2023-03-26T13:36:39.101Z,87.71
2023-03-26T13:39:22.200Z,85.75
2023-03-26T13:42:03.440Z,84.50
2023-03-26T13:44:52.721Z,85.39
2023-03-26T13:47:36.416Z,84.42
2023-03-26T13:50:05.711Z,83.89
2023-03-26T13:52:44.213Z,85.11
2023-03-26T13:55:30.725Z,83.70
2023-03-26T13:58:34.684Z,82.54
2023-03-26T14:01:04.657Z,79.18
2023-03-26T14:03:43.217Z,80.98
2023-03-26T14:06:27.694Z,82.44
2023-03-26T14:09:04.704Z,83.53
2023-03-26T14:11:40.228Z,81.43
2023-03-26T14:14:16.219Z,82.17
2023-03-26T14:16:49.646Z,81.56
2023-03-26T14:19:46.821Z,81.90
2023-03-26T14:22:20.017Z,83.38
2023-03-26T14:25:13.313Z,81.88
2023-03-26T14:27:57.599Z,80.03
2023-03-26T14:30:50.207Z,81.37
2023-03-26T14:33:33.941Z,81.85
2023-03-26T14:36:09.164Z,83.50
2023-03-26T14:38:53.890Z,82.33
2023-03-26T14:41:25.398Z,79.59
2023-03-26T14:44:07.115Z,81.23
2023-03-26T14:46:55.604Z,80.56
2023-03-26T14:49:40.239Z,80.10
2023-03-26T14:52:31.056Z,80.58
2023-03-26T14:55:03.269Z,81.50
2023-03-26T14:57:55.070Z,79.19
2023-03-26T15:00:42.663Z,79.82
2023-03-26T15:03:09.400Z,79.03
2023-03-26T15:06:06.471Z,78.27
2023-03-26T15:08:38.912Z,78.98
2023-03-26T15:11:16.203Z,79.32
2023-03-26T15:14:19.587Z,79.06
2023-03-26T15:17:09.491Z,78.86
2023-03-26T15:19:49.708Z,77.04
2023-03-26T15:22:16.204Z,78.21
2023-03-26T15:25:14.557Z,78.88
2023-03-26T15:27:57.838Z,78.08
2023-03-26T15:30:47.636Z,78.65
2023-03-26T15:33:34.864Z,77.21
2023-03-26T15:36:28.392Z,77.26
2023-03-26T15:39:16.219Z,77.10
2023-03-26T15:41:53.465Z,76.12
2023-03-26T15:44:43.822Z,74.66
2023-03-26T15:47:27.069Z,75.45
2023-03-26T15:49:59.965Z,75.99
2023-03-26T15:52:37.643Z,76.12
2023-03-26T15:55:27.640Z,75.11
2023-03-26T15:58:12.224Z,74.66
2023-03-26T16:00:55.202Z,75.33
2023-03-26T16:03:48.791Z,76.72
2023-03-26T16:06:30.763Z,76.14
2023-03-26T16:09:09.440Z,75.57
2023-03-26T16:12:17.334Z,74.60
2023-03-26T16:14:46.848Z,74.54
2023-03-26T16:17:17.659Z,74.62
2023-03-26T16:19:58.755Z,74.48
2023-03-26T16:23:03.517Z,74.82
2023-03-26T16:25:54.014Z,73.11
2023-03-26T16:28:28.842Z,72.15
2023-03-26T16:31:36.918Z,73.75
2023-03-26T16:34:19.795Z,73.41
2023-03-26T16:36:49.864Z,74.70
2023-03-26T16:39:22.465Z,72.64
2023-03-26T16:41:57.042Z,72.88
2023-03-26T16:45:13.546Z,73.07
2023-03-26T16:48:06.636Z,71.97
2023-03-26T16:50:42.834Z,73.88
2023-03-26T16:53:29.711Z,71.98
2023-03-26T16:55:59.847Z,72.91
2023-03-26T16:58:54.950Z,72.23
2023-03-26T17:01:21.370Z,73.47
2023-03-26T17:04:07.030Z,73.35
2023-03-26T17:06:53.657Z,71.67
2023-03-26T17:09:37.753Z,72.30
2023-03-26T17:12:23.700Z,71.91
2023-03-26T17:14:53.050Z,71.45
2023-03-26T17:17:44.308Z,70.91
2023-03-26T17:20:42.724Z,69.81
2023-03-26T17:23:21.542Z,70.64
2023-03-26T17:26:03.890Z,68.86
2023-03-26T17:28:50.588Z,70.69
2023-03-26T17:31:35.741Z,70.72
2023-03-26T17:34:40.112Z,71.34
2023-03-26T17:37:31.213Z,70.97
2023-03-26T17:39:57.623Z,69.95
2023-03-26T17:42:33.012Z,70.85
2023-03-26T17:45:03.476Z,70.44
2023-03-26T17:47:37.987Z,69.37
2023-03-26T17:50:13.678Z,68.83
2023-03-26T17:52:51.346Z,69.28
2023-03-26T17:55:25.622Z,69.02
2023-03-26T17:57:57.091Z,69.25
2023-03-26T18:00:29.247Z,69.54
2023-03-26T18:03:02.764Z,69.26
2023-03-26T18:05:30.900Z,67.72
2023-03-26T18:08:16.007Z,69.33
2023-03-26T18:11:01.624Z,69.29
2023-03-26T18:13:40.489Z,68.90
2023-03-26T18:16:20.786Z,69.64
2023-03-26T18:19:02.286Z,70.67
2023-03-26T18:21:36.214Z,71.37
2023-03-26T18:24:06.557Z,71.37
2023-03-26T18:26:35.486Z,71.08
2023-03-26T18:29:17.906Z,71.98
2023-03-26T18:31:46.045Z,71.84
2023-03-26T18:34:20.239Z,71.49
2023-03-26T18:37:01.140Z,72.51
2023-03-26T18:39:27.871Z,71.81
2023-03-26T18:41:54.750Z,72.50
2023-03-26T18:44:21.959Z,72.94
2023-03-26T18:46:48.630Z,72.85
2023-03-26T18:49:16.744Z,72.47
2023-03-26T18:51:56.249Z,72.35
2023-03-26T18:54:25.090Z,72.19
2023-03-26T18:56:52.579Z,73.27
2023-03-26T18:59:27.854Z,72.94
2023-03-26T19:01:59.733Z,74.02
2023-03-26T19:04:27.972Z,74.39
2023-03-26T19:06:56.046Z,74.67
2023-03-26T19:09:31.616Z,75.44
2023-03-26T19:12:05.887Z,75.63
2023-03-26T19:14:36.517Z,75.47
2023-03-26T19:17:04.990Z,75.49
2023-03-26T19:19:36.710Z,76.29
2023-03-26T19:22:10.520Z,77.03
2023-03-26T19:24:37.307Z,77.29
2023-03-26T19:27:04.597Z,78.28
2023-03-26T19:29:35.138Z,76.70
2023-03-26T19:32:15.122Z,76.82
2023-03-26T19:34:41.581Z,75.88
2023-03-26T19:37:23.494Z,77.17
2023-03-26T19:39:52.876Z,77.42
2023-03-26T19:42:42.995Z,77.70
2023-03-26T19:45:18.189Z,78.35
2023-03-26T19:47:49.956Z,78.42
2023-03-26T19:50:28.686Z,78.55
2023-03-26T19:53:22.427Z,78.46
2023-03-26T19:55:57.451Z,78.99
2023-03-26T19:58:25.912Z,77.43
2023-03-26T20:00:52.774Z,78.44
2023-03-26T20:03:25.702Z,78.08
2023-03-26T20:05:52.280Z,77.75
2023-03-26T20:08:19.822Z,77.47
2023-03-26T20:10:46.210Z,77.81
2023-03-26T20:13:16.995Z,77.34
2023-03-26T20:15:46.893Z,78.47
2023-03-26T20:18:13.473Z,77.29
2023-03-26T20:20:41.280Z,77.36
2023-03-26T20:23:19.727Z,77.21
2023-03-26T20:25:51.501Z,76.86
2023-03-26T20:28:21.584Z,76.71
2023-03-26T20:30:49.266Z,76.83
2023-03-26T20:33:19.276Z,76.89
2023-03-26T20:35:46.053Z,77.18
2023-03-26T20:38:12.633Z,77.16
2023-03-26T20:40:40.396Z,77.41
2023-03-26T20:43:12.400Z,77.26
2023-03-26T20:45:39.596Z,76.64
2023-03-26T20:48:08.273Z,77.30
2023-03-26T20:50:35.950Z,77.75
2023-03-26T20:53:05.330Z,78.39
2023-03-26T20:55:31.743Z,78.50
2023-03-26T20:57:58.158Z,78.85
2023-03-26T21:00:24.664Z,78.52
2023-03-26T21:02:53.504Z,79.10
2023-03-26T21:05:24.575Z,78.84
2023-03-26T21:07:56.423Z,79.50
2023-03-26T21:10:25.892Z,80.65
2023-03-26T21:13:18.563Z,80.84
2023-03-26T21:15:45.272Z,81.10
2023-03-26T21:18:12.190Z,81.31
2023-03-26T21:20:39.382Z,82.12
2023-03-26T21:23:37.673Z,81.92
2023-03-26T21:26:19.967Z,82.21
2023-03-26T21:28:48.377Z,82.90
2023-03-26T21:31:18.724Z,82.67
2023-03-26T21:33:46.474Z,83.66
2023-03-26T21:36:14.060Z,84.06
2023-03-26T21:38:43.491Z,84.41
2023-03-26T21:41:41.550Z,84.91
2023-03-26T21:44:08.521Z,85.25
2023-03-26T21:46:35.363Z,85.97
2023-03-26T21:49:02.184Z,85.67
2023-03-26T21:51:29.253Z,86.19
2023-03-26T21:53:55.928Z,86.44
2023-03-26T21:56:45.394Z,86.94
2023-03-26T21:59:34.896Z,86.98
2023-03-26T22:02:32.278Z,87.43
2023-03-26T22:05:13.025Z,88.02
2023-03-26T22:08:01.513Z,88.17
2023-03-26T22:10:28.657Z,87.73
2023-03-26T22:12:55.173Z,88.13
2023-03-26T22:15:21.786Z,87.64
2023-03-26T22:17:55.511Z,88.12
2023-03-26T22:20:24.896Z,89.02
2023-03-26T22:22:53.215Z,89.31
2023-03-26T22:25:21.580Z,89.26
2023-03-26T22:27:49.775Z,90.20
2023-03-26T22:30:16.948Z,89.96
2023-03-26T22:32:44.653Z,90.11
2023-03-26T22:35:11.361Z,89.80
2023-03-26T22:37:37.816Z,89.90
2023-03-26T22:40:10.243Z,89.91
2023-03-26T22:42:36.807Z,90.25
2023-03-26T22:45:04.075Z,90.75
2023-03-26T22:47:33.519Z,90.82
2023-03-26T22:50:00.573Z,91.38
2023-03-26T22:52:27.219Z,91.20
2023-03-26T22:54:53.680Z,91.35
2023-03-26T22:57:21.578Z,91.93
2023-03-26T22:59:48.137Z,90.92
2023-03-26T23:02:16.475Z,91.56
2023-03-26T23:04:44.037Z,91.68
2023-03-26T23:07:10.845Z,92.07
2023-03-26T23:09:37.306Z,91.40
2023-03-26T23:12:04.406Z,92.02
2023-03-26T23:14:32.342Z,91.80
2023-03-26T23:16:59.410Z,91.68
2023-03-26T23:19:26.308Z,92.28
2023-03-26T23:21:52.745Z,92.53
2023-03-26T23:24:19.735Z,92.50
2023-03-26T23:26:50.565Z,91.62
2023-03-26T23:29:18.276Z,92.07
2023-03-26T23:31:44.855Z,91.76
2023-03-26T23:34:13.344Z,92.18
2023-03-26T23:36:40.747Z,92.49
2023-03-26T23:39:07.202Z,92.63
2023-03-26T23:41:33.890Z,92.15
2023-03-26T23:44:01.493Z,92.25
2023-03-26T23:46:30.333Z,92.15
2023-03-26T23:48:59.826Z,91.78
2023-03-26T23:51:26.631Z,92.53
2023-03-26T23:53:53.924Z,92.25
2023-03-26T23:56:20.983Z,92.53
2023-03-26T23:58:48.935Z,91.90
